sensor_id;sensor_type;location;lat;lon;timestamp;temperature;humidity
47384;DHT22;33129;52.232;5.192;2022-08-21T00:00:55;21.20;99.90
47384;DHT22;33129;52.232;5.192;2022-08-21T00:03:21;20.70;99.90
47384;DHT22;33129;52.232;5.192;2022-08-21T00:05:49;20.90;99.90
47384;DHT22;33129;52.232;5.192;2022-08-21T00:08:17;21.00;99.90
47384;DHT22;33129;52.232;5.192;2022-08-21T00:10:45;20.70;99.90
47384;DHT22;33129;52.232;5.192;2022-08-21T00:13:12;20.60;99.90
47384;DHT22;33129;52.232;5.192;2022-08-21T00:15:40;20.80;99.90
47384;DHT22;33129;52.232;5.192;2022-08-21T00:18:08;20.90;99.90
47384;DHT22;33129;52.232;5.192;2022-08-21T00:20:37;20.90;99.90
47384;DHT22;33129;52.232;5.192;2022-08-21T00:23:03;20.50;99.90
47384;DHT22;33129;52.232;5.192;2022-08-21T00:25:30;20.90;99.90
47384;DHT22;33129;52.232;5.192;2022-08-21T00:27:56;20.90;99.90
47384;DHT22;33129;52.232;5.192;2022-08-21T00:30:23;21.00;99.90
47384;DHT22;33129;52.232;5.192;2022-08-21T00:32:52;20.50;99.90
47384;DHT22;33129;52.232;5.192;2022-08-21T00:35:25;20.90;99.90
47384;DHT22;33129;52.232;5.192;2022-08-21T00:37:54;21.00;99.90
47384;DHT22;33129;52.232;5.192;2022-08-21T00:40:27;20.60;99.90
47384;DHT22;33129;52.232;5.192;2022-08-21T00:42:55;20.80;99.90
47384;DHT22;33129;52.232;5.192;2022-08-21T00:45:22;20.40;99.90
47384;DHT22;33129;52.232;5.192;2022-08-21T00:47:49;20.70;99.90
47384;DHT22;33129;52.232;5.192;2022-08-21T00:50:17;20.50;99.90
47384;DHT22;33129;52.232;5.192;2022-08-21T00:52:44;20.60;99.90
47384;DHT22;33129;52.232;5.192;2022-08-21T00:55:11;20.50;99.90
47384;DHT22;33129;52.232;5.192;2022-08-21T00:57:45;20.50;99.90
47384;DHT22;33129;52.232;5.192;2022-08-21T01:00:19;20.50;99.90
47384;DHT22;33129;52.232;5.192;2022-08-21T01:02:50;20.50;99.90
47384;DHT22;33129;52.232;5.192;2022-08-21T01:05:16;20.50;99.90
47384;DHT22;33129;52.232;5.192;2022-08-21T01:07:43;20.10;99.90
47384;DHT22;33129;52.232;5.192;2022-08-21T01:10:09;20.60;99.90
47384;DHT22;33129;52.232;5.192;2022-08-21T01:12:36;20.30;99.90
47384;DHT22;33129;52.232;5.192;2022-08-21T01:15:03;20.40;99.90
47384;DHT22;33129;52.232;5.192;2022-08-21T01:17:31;20.50;99.90
47384;DHT22;33129;52.232;5.192;2022-08-21T01:19:58;20.40;99.90
47384;DHT22;33129;52.232;5.192;2022-08-21T01:22:25;20.10;99.90
47384;DHT22;33129;52.232;5.192;2022-08-21T01:24:51;20.40;99.90
47384;DHT22;33129;52.232;5.192;2022-08-21T01:27:17;20.40;99.90
47384;DHT22;33129;52.232;5.192;2022-08-21T01:29:53;20.20;99.90
47384;DHT22;33129;52.232;5.192;2022-08-21T01:32:21;20.10;99.90
47384;DHT22;33129;52.232;5.192;2022-08-21T01:34:49;20.30;99.90
47384;DHT22;33129;52.232;5.192;2022-08-21T01:37:16;20.30;99.90
47384;DHT22;33129;52.232;5.192;2022-08-21T01:39:43;20.30;99.90
47384;DHT22;33129;52.232;5.192;2022-08-21T01:42:10;20.30;99.90
47384;DHT22;33129;52.232;5.192;2022-08-21T01:44:36;20.00;99.90
47384;DHT22;33129;52.232;5.192;2022-08-21T01:47:08;20.20;99.90
47384;DHT22;33129;52.232;5.192;2022-08-21T01:49:36;20.10;99.90
47384;DHT22;33129;52.232;5.192;2022-08-21T01:52:04;19.80;99.90
47384;DHT22;33129;52.232;5.192;2022-08-21T01:54:31;20.30;99.90
47384;DHT22;33129;52.232;5.192;2022-08-21T01:56:58;20.10;99.90
47384;DHT22;33129;52.232;5.192;2022-08-21T01:59:25;20.10;99.90
47384;DHT22;33129;52.232;5.192;2022-08-21T02:01:52;20.00;99.90
47384;DHT22;33129;52.232;5.192;2022-08-21T02:04:20;19.90;99.90
47384;DHT22;33129;52.232;5.192;2022-08-21T02:06:46;20.20;99.90
47384;DHT22;33129;52.232;5.192;2022-08-21T02:09:12;19.70;99.90
47384;DHT22;33129;52.232;5.192;2022-08-21T02:11:39;20.10;99.90
47384;DHT22;33129;52.232;5.192;2022-08-21T02:14:15;20.10;99.90
47384;DHT22;33129;52.232;5.192;2022-08-21T02:16:42;20.20;99.90
47384;DHT22;33129;52.232;5.192;2022-08-21T02:19:10;19.80;99.90
47384;DHT22;33129;52.232;5.192;2022-08-21T02:21:37;20.10;99.90
47384;DHT22;33129;52.232;5.192;2022-08-21T02:24:03;20.00;99.90
47384;DHT22;33129;52.232;5.192;2022-08-21T02:26:30;20.10;99.90
47384;DHT22;33129;52.232;5.192;2022-08-21T02:28:55;19.80;99.90
47384;DHT22;33129;52.232;5.192;2022-08-21T02:31:21;19.50;99.90
47384;DHT22;33129;52.232;5.192;2022-08-21T02:33:47;19.70;99.90
47384;DHT22;33129;52.232;5.192;2022-08-21T02:36:13;19.90;99.90
47384;DHT22;33129;52.232;5.192;2022-08-21T02:38:41;19.90;99.90
47384;DHT22;33129;52.232;5.192;2022-08-21T02:41:11;19.50;99.90
47384;DHT22;33129;52.232;5.192;2022-08-21T02:43:41;19.70;99.90
47384;DHT22;33129;52.232;5.192;2022-08-21T02:46:08;19.50;99.90
47384;DHT22;33129;52.232;5.192;2022-08-21T02:48:42;19.20;99.90
47384;DHT22;33129;52.232;5.192;2022-08-21T02:51:15;19.60;99.90
47384;DHT22;33129;52.232;5.192;2022-08-21T02:53:46;19.50;99.90
47384;DHT22;33129;52.232;5.192;2022-08-21T02:56:15;19.40;99.90
47384;DHT22;33129;52.232;5.192;2022-08-21T02:58:46;19.60;99.90
47384;DHT22;33129;52.232;5.192;2022-08-21T03:01:14;19.50;99.90
47384;DHT22;33129;52.232;5.192;2022-08-21T03:03:44;19.50;99.90
47384;DHT22;33129;52.232;5.192;2022-08-21T03:06:12;19.20;99.90
47384;DHT22;33129;52.232;5.192;2022-08-21T03:08:39;19.20;99.90
47384;DHT22;33129;52.232;5.192;2022-08-21T03:11:05;19.50;99.90
47384;DHT22;33129;52.232;5.192;2022-08-21T03:13:32;19.40;99.90
47384;DHT22;33129;52.232;5.192;2022-08-21T03:15:58;19.10;99.90
47384;DHT22;33129;52.232;5.192;2022-08-21T03:18:24;19.40;99.90
47384;DHT22;33129;52.232;5.192;2022-08-21T03:20:50;19.30;99.90
47384;DHT22;33129;52.232;5.192;2022-08-21T03:23:17;19.30;99.90
47384;DHT22;33129;52.232;5.192;2022-08-21T03:25:43;19.40;99.90
47384;DHT22;33129;52.232;5.192;2022-08-21T03:28:13;18.90;99.90
47384;DHT22;33129;52.232;5.192;2022-08-21T03:30:42;18.70;99.90
47384;DHT22;33129;52.232;5.192;2022-08-21T03:33:09;19.30;99.90
47384;DHT22;33129;52.232;5.192;2022-08-21T03:35:36;18.70;99.90
47384;DHT22;33129;52.232;5.192;2022-08-21T03:38:02;19.30;99.90
47384;DHT22;33129;52.232;5.192;2022-08-21T03:40:28;18.80;99.90
47384;DHT22;33129;52.232;5.192;2022-08-21T03:42:54;19.20;99.90
47384;DHT22;33129;52.232;5.192;2022-08-21T03:45:20;19.00;99.90
47384;DHT22;33129;52.232;5.192;2022-08-21T03:48:00;19.30;99.90
47384;DHT22;33129;52.232;5.192;2022-08-21T03:50:32;19.30;99.90
47384;DHT22;33129;52.232;5.192;2022-08-21T03:53:00;19.20;99.90
47384;DHT22;33129;52.232;5.192;2022-08-21T03:55:26;19.10;99.90
47384;DHT22;33129;52.232;5.192;2022-08-21T03:57:53;19.20;99.90
47384;DHT22;33129;52.232;5.192;2022-08-21T04:00:19;19.30;99.90
47384;DHT22;33129;52.232;5.192;2022-08-21T04:02:46;19.50;99.90
47384;DHT22;33129;52.232;5.192;2022-08-21T04:05:14;19.30;99.90
47384;DHT22;33129;52.232;5.192;2022-08-21T04:07:53;19.30;99.90
47384;DHT22;33129;52.232;5.192;2022-08-21T04:10:20;19.30;99.90
47384;DHT22;33129;52.232;5.192;2022-08-21T04:12:46;19.10;99.90
47384;DHT22;33129;52.232;5.192;2022-08-21T04:15:11;19.10;99.90
47384;DHT22;33129;52.232;5.192;2022-08-21T04:17:38;19.10;99.90
47384;DHT22;33129;52.232;5.192;2022-08-21T04:20:04;19.20;99.90
47384;DHT22;33129;52.232;5.192;2022-08-21T04:22:30;19.30;99.90
47384;DHT22;33129;52.232;5.192;2022-08-21T04:24:56;19.10;99.90
47384;DHT22;33129;52.232;5.192;2022-08-21T04:27:21;18.90;99.90
47384;DHT22;33129;52.232;5.192;2022-08-21T04:29:47;19.20;99.90
47384;DHT22;33129;52.232;5.192;2022-08-21T04:32:13;18.70;99.90
47384;DHT22;33129;52.232;5.192;2022-08-21T04:34:38;18.80;99.90
47384;DHT22;33129;52.232;5.192;2022-08-21T04:37:04;19.00;99.90
47384;DHT22;33129;52.232;5.192;2022-08-21T04:39:30;18.90;99.90
47384;DHT22;33129;52.232;5.192;2022-08-21T04:41:55;19.10;99.90
47384;DHT22;33129;52.232;5.192;2022-08-21T04:44:21;19.00;99.90
47384;DHT22;33129;52.232;5.192;2022-08-21T04:46:47;18.50;99.90
47384;DHT22;33129;52.232;5.192;2022-08-21T04:49:13;19.10;99.90
47384;DHT22;33129;52.232;5.192;2022-08-21T04:51:39;18.60;99.90
47384;DHT22;33129;52.232;5.192;2022-08-21T04:54:12;18.60;99.90
47384;DHT22;33129;52.232;5.192;2022-08-21T04:56:51;18.60;99.90
47384;DHT22;33129;52.232;5.192;2022-08-21T04:59:28;18.70;99.90
47384;DHT22;33129;52.232;5.192;2022-08-21T05:01:57;18.50;99.90
47384;DHT22;33129;52.232;5.192;2022-08-21T05:04:26;18.60;99.90
47384;DHT22;33129;52.232;5.192;2022-08-21T05:06:57;18.60;99.90
47384;DHT22;33129;52.232;5.192;2022-08-21T05:09:26;18.90;99.90
47384;DHT22;33129;52.232;5.192;2022-08-21T05:11:53;18.90;99.90
47384;DHT22;33129;52.232;5.192;2022-08-21T05:14:19;18.50;99.90
47384;DHT22;33129;52.232;5.192;2022-08-21T05:16:45;18.40;99.90
47384;DHT22;33129;52.232;5.192;2022-08-21T05:19:12;18.90;99.90
47384;DHT22;33129;52.232;5.192;2022-08-21T05:21:41;18.70;99.90
47384;DHT22;33129;52.232;5.192;2022-08-21T05:24:08;18.80;99.90
47384;DHT22;33129;52.232;5.192;2022-08-21T05:26:34;18.50;99.90
47384;DHT22;33129;52.232;5.192;2022-08-21T05:29:02;18.60;99.90
47384;DHT22;33129;52.232;5.192;2022-08-21T05:31:28;18.80;99.90
47384;DHT22;33129;52.232;5.192;2022-08-21T05:33:54;18.80;99.90
47384;DHT22;33129;52.232;5.192;2022-08-21T05:36:20;18.80;99.90
47384;DHT22;33129;52.232;5.192;2022-08-21T05:38:45;18.60;99.90
47384;DHT22;33129;52.232;5.192;2022-08-21T05:41:11;18.90;99.90
47384;DHT22;33129;52.232;5.192;2022-08-21T05:43:37;19.20;99.90
47384;DHT22;33129;52.232;5.192;2022-08-21T05:46:03;19.70;99.90
47384;DHT22;33129;52.232;5.192;2022-08-21T05:48:30;19.90;99.90
47384;DHT22;33129;52.232;5.192;2022-08-21T05:50:57;20.30;99.90
47384;DHT22;33129;52.232;5.192;2022-08-21T05:53:24;20.80;99.90
47384;DHT22;33129;52.232;5.192;2022-08-21T05:55:51;21.10;99.90
47384;DHT22;33129;52.232;5.192;2022-08-21T05:58:19;21.20;99.90
47384;DHT22;33129;52.232;5.192;2022-08-21T06:00:47;21.40;99.90
47384;DHT22;33129;52.232;5.192;2022-08-21T06:03:18;21.60;99.90
47384;DHT22;33129;52.232;5.192;2022-08-21T06:05:46;21.60;99.90
47384;DHT22;33129;52.232;5.192;2022-08-21T06:08:13;21.90;99.90
47384;DHT22;33129;52.232;5.192;2022-08-21T06:10:44;22.00;99.90
47384;DHT22;33129;52.232;5.192;2022-08-21T06:13:11;22.00;99.90
47384;DHT22;33129;52.232;5.192;2022-08-21T06:15:37;22.20;99.90
47384;DHT22;33129;52.232;5.192;2022-08-21T06:18:03;22.00;99.90
47384;DHT22;33129;52.232;5.192;2022-08-21T06:20:29;21.80;99.90
47384;DHT22;33129;52.232;5.192;2022-08-21T06:22:55;21.70;99.90
47384;DHT22;33129;52.232;5.192;2022-08-21T06:25:21;21.60;99.90
47384;DHT22;33129;52.232;5.192;2022-08-21T06:27:47;21.60;99.90
47384;DHT22;33129;52.232;5.192;2022-08-21T06:30:13;21.90;99.90
47384;DHT22;33129;52.232;5.192;2022-08-21T06:32:39;22.10;99.90
47384;DHT22;33129;52.232;5.192;2022-08-21T06:35:06;22.50;99.90
47384;DHT22;33129;52.232;5.192;2022-08-21T06:37:32;22.70;99.90
47384;DHT22;33129;52.232;5.192;2022-08-21T06:39:58;22.90;99.90
47384;DHT22;33129;52.232;5.192;2022-08-21T06:42:24;23.10;99.90
47384;DHT22;33129;52.232;5.192;2022-08-21T06:44:50;23.30;99.90
47384;DHT22;33129;52.232;5.192;2022-08-21T06:47:16;23.90;99.90
47384;DHT22;33129;52.232;5.192;2022-08-21T06:49:41;24.20;99.90
47384;DHT22;33129;52.232;5.192;2022-08-21T06:52:11;24.50;99.90
47384;DHT22;33129;52.232;5.192;2022-08-21T06:54:39;24.80;99.90
47384;DHT22;33129;52.232;5.192;2022-08-21T06:57:05;24.90;99.90
47384;DHT22;33129;52.232;5.192;2022-08-21T06:59:31;24.90;99.90
47384;DHT22;33129;52.232;5.192;2022-08-21T07:01:58;24.90;99.90
47384;DHT22;33129;52.232;5.192;2022-08-21T07:04:24;24.80;99.90
47384;DHT22;33129;52.232;5.192;2022-08-21T07:06:50;24.90;99.90
47384;DHT22;33129;52.232;5.192;2022-08-21T07:09:16;25.20;99.90
47384;DHT22;33129;52.232;5.192;2022-08-21T07:11:50;25.80;99.90
47384;DHT22;33129;52.232;5.192;2022-08-21T07:14:17;26.20;99.90
47384;DHT22;33129;52.232;5.192;2022-08-21T07:16:43;26.10;99.90
47384;DHT22;33129;52.232;5.192;2022-08-21T07:19:09;26.10;99.90
47384;DHT22;33129;52.232;5.192;2022-08-21T07:21:34;26.40;99.90
47384;DHT22;33129;52.232;5.192;2022-08-21T07:24:00;26.20;99.90
47384;DHT22;33129;52.232;5.192;2022-08-21T07:26:26;26.30;99.90
47384;DHT22;33129;52.232;5.192;2022-08-21T07:28:52;27.00;99.90
47384;DHT22;33129;52.232;5.192;2022-08-21T07:31:19;27.00;99.90
47384;DHT22;33129;52.232;5.192;2022-08-21T07:33:47;26.70;99.90
47384;DHT22;33129;52.232;5.192;2022-08-21T07:36:13;27.30;99.90
47384;DHT22;33129;52.232;5.192;2022-08-21T07:38:39;27.80;99.90
47384;DHT22;33129;52.232;5.192;2022-08-21T07:41:17;27.70;99.90
47384;DHT22;33129;52.232;5.192;2022-08-21T07:43:45;27.80;99.90
47384;DHT22;33129;52.232;5.192;2022-08-21T07:46:12;27.80;99.90
47384;DHT22;33129;52.232;5.192;2022-08-21T07:48:38;28.10;99.90
47384;DHT22;33129;52.232;5.192;2022-08-21T07:51:13;27.70;99.90
47384;DHT22;33129;52.232;5.192;2022-08-21T07:53:40;28.00;99.90
47384;DHT22;33129;52.232;5.192;2022-08-21T07:56:07;27.90;99.90
47384;DHT22;33129;52.232;5.192;2022-08-21T07:58:34;27.90;99.90
47384;DHT22;33129;52.232;5.192;2022-08-21T08:00:59;27.60;99.90
47384;DHT22;33129;52.232;5.192;2022-08-21T08:03:25;27.80;99.90
47384;DHT22;33129;52.232;5.192;2022-08-21T08:05:51;28.10;99.90
47384;DHT22;33129;52.232;5.192;2022-08-21T08:08:17;28.50;99.90
47384;DHT22;33129;52.232;5.192;2022-08-21T08:10:43;28.90;99.90
47384;DHT22;33129;52.232;5.192;2022-08-21T08:13:10;29.20;99.90
47384;DHT22;33129;52.232;5.192;2022-08-21T08:15:36;28.70;99.90
47384;DHT22;33129;52.232;5.192;2022-08-21T08:18:02;29.10;99.90
47384;DHT22;33129;52.232;5.192;2022-08-21T08:20:28;28.80;99.90
47384;DHT22;33129;52.232;5.192;2022-08-21T08:22:55;29.50;99.90
47384;DHT22;33129;52.232;5.192;2022-08-21T08:25:22;29.20;99.90
47384;DHT22;33129;52.232;5.192;2022-08-21T08:27:49;29.00;99.90
47384;DHT22;33129;52.232;5.192;2022-08-21T08:30:17;29.40;99.90
47384;DHT22;33129;52.232;5.192;2022-08-21T08:32:43;29.70;99.90
47384;DHT22;33129;52.232;5.192;2022-08-21T08:35:10;29.60;99.90
47384;DHT22;33129;52.232;5.192;2022-08-21T08:37:37;29.80;99.90
47384;DHT22;33129;52.232;5.192;2022-08-21T08:40:09;29.70;99.90
47384;DHT22;33129;52.232;5.192;2022-08-21T08:42:36;28.90;99.90
47384;DHT22;33129;52.232;5.192;2022-08-21T08:47:30;28.70;99.90
47384;DHT22;33129;52.232;5.192;2022-08-21T08:52:34;28.40;99.90
47384;DHT22;33129;52.232;5.192;2022-08-21T08:57:37;29.50;99.90
47384;DHT22;33129;52.232;5.192;2022-08-21T09:00:08;28.80;99.90
47384;DHT22;33129;52.232;5.192;2022-08-21T09:02:39;28.30;99.90
47384;DHT22;33129;52.232;5.192;2022-08-21T09:05:08;28.90;99.90
47384;DHT22;33129;52.232;5.192;2022-08-21T09:10:33;28.70;99.90
47384;DHT22;33129;52.232;5.192;2022-08-21T09:16:16;29.40;99.90
47384;DHT22;33129;52.232;5.192;2022-08-21T09:21:43;30.10;99.90
47384;DHT22;33129;52.232;5.192;2022-08-21T09:24:33;30.10;99.90
47384;DHT22;33129;52.232;5.192;2022-08-21T09:27:15;29.70;99.90
47384;DHT22;33129;52.232;5.192;2022-08-21T09:29:45;30.00;99.90
47384;DHT22;33129;52.232;5.192;2022-08-21T09:32:42;29.60;99.90
47384;DHT22;33129;52.232;5.192;2022-08-21T09:35:26;29.50;99.90
47384;DHT22;33129;52.232;5.192;2022-08-21T09:37:56;29.50;99.90
47384;DHT22;33129;52.232;5.192;2022-08-21T09:40:45;29.30;99.90
47384;DHT22;33129;52.232;5.192;2022-08-21T09:43:21;28.90;99.90
47384;DHT22;33129;52.232;5.192;2022-08-21T09:46:37;28.40;99.90
47384;DHT22;33129;52.232;5.192;2022-08-21T09:48:58;28.70;99.90
47384;DHT22;33129;52.232;5.192;2022-08-21T09:51:31;29.00;99.90
47384;DHT22;33129;52.232;5.192;2022-08-21T09:54:18;28.90;99.90
47384;DHT22;33129;52.232;5.192;2022-08-21T09:56:55;29.10;99.90
47384;DHT22;33129;52.232;5.192;2022-08-21T09:59:41;29.60;99.90
47384;DHT22;33129;52.232;5.192;2022-08-21T10:02:28;29.90;99.90
47384;DHT22;33129;52.232;5.192;2022-08-21T10:05:14;29.50;99.90
47384;DHT22;33129;52.232;5.192;2022-08-21T10:07:42;28.80;99.90
47384;DHT22;33129;52.232;5.192;2022-08-21T10:10:29;29.20;99.90
47384;DHT22;33129;52.232;5.192;2022-08-21T10:13:11;30.10;99.90
47384;DHT22;33129;52.232;5.192;2022-08-21T10:16:11;30.30;99.90
47384;DHT22;33129;52.232;5.192;2022-08-21T10:18:56;31.10;99.90
47384;DHT22;33129;52.232;5.192;2022-08-21T10:24:36;30.90;99.90
47384;DHT22;33129;52.232;5.192;2022-08-21T10:30:23;30.60;99.90
47384;DHT22;33129;52.232;5.192;2022-08-21T10:33:04;29.90;99.90
47384;DHT22;33129;52.232;5.192;2022-08-21T10:38:53;29.40;99.90
47384;DHT22;33129;52.232;5.192;2022-08-21T10:45:03;29.10;99.90
47384;DHT22;33129;52.232;5.192;2022-08-21T10:47:47;29.40;99.90
47384;DHT22;33129;52.232;5.192;2022-08-21T10:53:40;30.00;99.90
47384;DHT22;33129;52.232;5.192;2022-08-21T10:56:29;29.30;99.90
47384;DHT22;33129;52.232;5.192;2022-08-21T11:07:54;29.20;99.90
47384;DHT22;33129;52.232;5.192;2022-08-21T11:10:47;29.40;99.90
47384;DHT22;33129;52.232;5.192;2022-08-21T11:13:32;29.30;99.90
47384;DHT22;33129;52.232;5.192;2022-08-21T11:16:05;30.00;99.90
47384;DHT22;33129;52.232;5.192;2022-08-21T11:19:08;30.40;99.90
47384;DHT22;33129;52.232;5.192;2022-08-21T11:21:47;30.50;99.90
47384;DHT22;33129;52.232;5.192;2022-08-21T11:24:46;30.90;99.90
47384;DHT22;33129;52.232;5.192;2022-08-21T11:29:58;31.00;99.90
47384;DHT22;33129;52.232;5.192;2022-08-21T11:32:31;31.00;99.90
47384;DHT22;33129;52.232;5.192;2022-08-21T11:35:13;31.30;99.90
47384;DHT22;33129;52.232;5.192;2022-08-21T11:38:13;31.10;99.90
47384;DHT22;33129;52.232;5.192;2022-08-21T11:41:21;31.30;99.90
47384;DHT22;33129;52.232;5.192;2022-08-21T11:46:23;31.40;99.90
47384;DHT22;33129;52.232;5.192;2022-08-21T11:57:02;30.30;99.90
47384;DHT22;33129;52.232;5.192;2022-08-21T11:59:47;30.00;99.90
47384;DHT22;33129;52.232;5.192;2022-08-21T12:02:23;30.10;99.90
47384;DHT22;33129;52.232;5.192;2022-08-21T12:04:58;30.40;99.90
47384;DHT22;33129;52.232;5.192;2022-08-21T12:07:34;30.60;99.90
47384;DHT22;33129;52.232;5.192;2022-08-21T12:10:10;30.60;99.90
47384;DHT22;33129;52.232;5.192;2022-08-21T12:12:42;30.40;99.90
47384;DHT22;33129;52.232;5.192;2022-08-21T12:28:22;31.40;99.90
47384;DHT22;33129;52.232;5.192;2022-08-21T12:30:49;30.90;99.90
47384;DHT22;33129;52.232;5.192;2022-08-21T12:33:33;30.90;99.90
47384;DHT22;33129;52.232;5.192;2022-08-21T12:36:16;30.70;99.90
47384;DHT22;33129;52.232;5.192;2022-08-21T12:38:57;30.90;99.90
47384;DHT22;33129;52.232;5.192;2022-08-21T12:41:41;31.10;99.90
47384;DHT22;33129;52.232;5.192;2022-08-21T12:44:50;31.30;99.90
47384;DHT22;33129;52.232;5.192;2022-08-21T12:47:36;31.10;99.90
47384;DHT22;33129;52.232;5.192;2022-08-21T12:50:16;31.00;99.90
47384;DHT22;33129;52.232;5.192;2022-08-21T12:52:54;30.70;99.90
47384;DHT22;33129;52.232;5.192;2022-08-21T12:55:28;30.90;99.90
47384;DHT22;33129;52.232;5.192;2022-08-21T12:57:56;30.90;99.90
47384;DHT22;33129;52.232;5.192;2022-08-21T13:00:24;31.20;99.90
47384;DHT22;33129;52.232;5.192;2022-08-21T13:02:52;31.00;99.90
47384;DHT22;33129;52.232;5.192;2022-08-21T13:05:28;31.00;99.90
47384;DHT22;33129;52.232;5.192;2022-08-21T13:08:05;31.00;99.90
47384;DHT22;33129;52.232;5.192;2022-08-21T13:10:34;31.20;99.90
47384;DHT22;33129;52.232;5.192;2022-08-21T13:13:06;30.80;99.90
47384;DHT22;33129;52.232;5.192;2022-08-21T13:15:36;30.90;99.90
47384;DHT22;33129;52.232;5.192;2022-08-21T13:18:05;30.90;99.90
47384;DHT22;33129;52.232;5.192;2022-08-21T13:20:39;30.80;99.90
47384;DHT22;33129;52.232;5.192;2022-08-21T13:23:26;30.70;99.90
47384;DHT22;33129;52.232;5.192;2022-08-21T13:25:54;30.10;99.90
47384;DHT22;33129;52.232;5.192;2022-08-21T13:28:20;29.90;99.90
47384;DHT22;33129;52.232;5.192;2022-08-21T13:30:49;30.40;99.90
47384;DHT22;33129;52.232;5.192;2022-08-21T13:33:20;30.90;99.90
47384;DHT22;33129;52.232;5.192;2022-08-21T13:36:03;31.00;99.90
47384;DHT22;33129;52.232;5.192;2022-08-21T13:38:34;30.80;99.90
47384;DHT22;33129;52.232;5.192;2022-08-21T13:43:49;30.60;99.90
47384;DHT22;33129;52.232;5.192;2022-08-21T13:46:24;30.50;99.90
47384;DHT22;33129;52.232;5.192;2022-08-21T13:48:53;30.60;99.90
47384;DHT22;33129;52.232;5.192;2022-08-21T13:51:20;30.60;99.90
47384;DHT22;33129;52.232;5.192;2022-08-21T13:53:50;30.70;99.90
47384;DHT22;33129;52.232;5.192;2022-08-21T13:56:33;30.50;99.90
47384;DHT22;33129;52.232;5.192;2022-08-21T13:59:08;30.20;99.90
47384;DHT22;33129;52.232;5.192;2022-08-21T14:01:38;29.90;99.90
47384;DHT22;33129;52.232;5.192;2022-08-21T14:04:23;29.80;99.90
47384;DHT22;33129;52.232;5.192;2022-08-21T14:06:52;29.70;99.90
47384;DHT22;33129;52.232;5.192;2022-08-21T14:09:33;29.80;99.90
47384;DHT22;33129;52.232;5.192;2022-08-21T14:12:11;29.70;99.90
47384;DHT22;33129;52.232;5.192;2022-08-21T14:14:39;29.70;99.90
47384;DHT22;33129;52.232;5.192;2022-08-21T14:17:09;29.60;99.90
47384;DHT22;33129;52.232;5.192;2022-08-21T14:19:45;29.40;99.90
47384;DHT22;33129;52.232;5.192;2022-08-21T14:22:40;29.70;99.90
47384;DHT22;33129;52.232;5.192;2022-08-21T14:28:19;29.70;99.90
47384;DHT22;33129;52.232;5.192;2022-08-21T14:30:46;29.80;99.90
47384;DHT22;33129;52.232;5.192;2022-08-21T14:33:18;29.90;99.90
47384;DHT22;33129;52.232;5.192;2022-08-21T14:35:49;29.80;99.90
47384;DHT22;33129;52.232;5.192;2022-08-21T14:38:21;30.10;99.90
47384;DHT22;33129;52.232;5.192;2022-08-21T14:40:52;29.70;99.90
47384;DHT22;33129;52.232;5.192;2022-08-21T14:43:20;29.30;99.90
47384;DHT22;33129;52.232;5.192;2022-08-21T14:45:47;29.30;99.90
47384;DHT22;33129;52.232;5.192;2022-08-21T14:48:13;29.60;99.90
47384;DHT22;33129;52.232;5.192;2022-08-21T14:50:39;29.50;99.90
47384;DHT22;33129;52.232;5.192;2022-08-21T14:53:05;29.30;99.90
47384;DHT22;33129;52.232;5.192;2022-08-21T14:55:32;29.40;99.90
47384;DHT22;33129;52.232;5.192;2022-08-21T14:58:19;29.40;99.90
47384;DHT22;33129;52.232;5.192;2022-08-21T15:00:45;29.30;99.90
47384;DHT22;33129;52.232;5.192;2022-08-21T15:03:11;29.00;99.90
47384;DHT22;33129;52.232;5.192;2022-08-21T15:05:36;29.10;99.90
47384;DHT22;33129;52.232;5.192;2022-08-21T15:08:02;29.20;99.90
47384;DHT22;33129;52.232;5.192;2022-08-21T15:10:30;29.00;99.90
47384;DHT22;33129;52.232;5.192;2022-08-21T15:12:58;29.00;99.90
47384;DHT22;33129;52.232;5.192;2022-08-21T15:15:24;29.10;99.90
47384;DHT22;33129;52.232;5.192;2022-08-21T15:17:49;28.70;99.90
47384;DHT22;33129;52.232;5.192;2022-08-21T15:20:15;29.00;99.90
47384;DHT22;33129;52.232;5.192;2022-08-21T15:22:41;28.80;99.90
47384;DHT22;33129;52.232;5.192;2022-08-21T15:25:07;28.90;99.90
47384;DHT22;33129;52.232;5.192;2022-08-21T15:27:34;28.90;99.90
47384;DHT22;33129;52.232;5.192;2022-08-21T15:30:02;28.90;99.90
47384;DHT22;33129;52.232;5.192;2022-08-21T15:32:28;28.80;99.90
47384;DHT22;33129;52.232;5.192;2022-08-21T15:34:57;28.80;99.90
47384;DHT22;33129;52.232;5.192;2022-08-21T15:37:24;28.80;99.90
47384;DHT22;33129;52.232;5.192;2022-08-21T15:39:50;28.60;99.90
47384;DHT22;33129;52.232;5.192;2022-08-21T15:42:17;28.60;99.90
47384;DHT22;33129;52.232;5.192;2022-08-21T15:44:43;28.60;99.90
47384;DHT22;33129;52.232;5.192;2022-08-21T15:47:13;28.50;99.90
47384;DHT22;33129;52.232;5.192;2022-08-21T15:49:41;28.50;99.90
47384;DHT22;33129;52.232;5.192;2022-08-21T15:52:15;28.40;99.90
47384;DHT22;33129;52.232;5.192;2022-08-21T15:54:42;28.50;99.90
47384;DHT22;33129;52.232;5.192;2022-08-21T15:57:16;28.30;99.90
47384;DHT22;33129;52.232;5.192;2022-08-21T15:59:54;28.40;99.90
47384;DHT22;33129;52.232;5.192;2022-08-21T16:02:29;28.40;99.90
47384;DHT22;33129;52.232;5.192;2022-08-21T16:04:56;28.50;99.90
47384;DHT22;33129;52.232;5.192;2022-08-21T16:07:22;28.60;99.90
47384;DHT22;33129;52.232;5.192;2022-08-21T16:09:48;28.80;99.90
47384;DHT22;33129;52.232;5.192;2022-08-21T16:12:21;28.70;99.90
47384;DHT22;33129;52.232;5.192;2022-08-21T16:14:51;28.60;99.90
47384;DHT22;33129;52.232;5.192;2022-08-21T16:17:18;28.50;99.90
47384;DHT22;33129;52.232;5.192;2022-08-21T16:19:44;28.40;99.90
47384;DHT22;33129;52.232;5.192;2022-08-21T16:22:10;28.40;99.90
47384;DHT22;33129;52.232;5.192;2022-08-21T16:24:36;28.40;99.90
47384;DHT22;33129;52.232;5.192;2022-08-21T16:27:02;28.40;99.90
47384;DHT22;33129;52.232;5.192;2022-08-21T16:29:33;28.10;99.90
47384;DHT22;33129;52.232;5.192;2022-08-21T16:32:01;28.00;99.90
47384;DHT22;33129;52.232;5.192;2022-08-21T16:34:28;27.90;99.90
47384;DHT22;33129;52.232;5.192;2022-08-21T16:36:54;28.10;99.90
47384;DHT22;33129;52.232;5.192;2022-08-21T16:39:20;28.10;99.90
47384;DHT22;33129;52.232;5.192;2022-08-21T16:41:49;28.10;99.90
47384;DHT22;33129;52.232;5.192;2022-08-21T16:44:15;28.10;99.90
47384;DHT22;33129;52.232;5.192;2022-08-21T16:46:41;28.00;99.90
47384;DHT22;33129;52.232;5.192;2022-08-21T16:49:07;28.10;99.90
47384;DHT22;33129;52.232;5.192;2022-08-21T16:51:35;28.30;99.90
47384;DHT22;33129;52.232;5.192;2022-08-21T16:54:01;28.10;99.90
47384;DHT22;33129;52.232;5.192;2022-08-21T16:56:28;28.10;99.90
47384;DHT22;33129;52.232;5.192;2022-08-21T16:58:55;28.10;99.90
47384;DHT22;33129;52.232;5.192;2022-08-21T17:01:25;28.10;99.90
47384;DHT22;33129;52.232;5.192;2022-08-21T17:03:52;28.10;99.90